sensor_id;sensor_type;location;lat;lon;timestamp;temperature;humidity
6443;DHT22;3254;47.372;8.512;2023-07-16T00:00:26;16.10;99.90
6443;DHT22;3254;47.372;8.512;2023-07-16T00:02:52;16.00;99.90
6443;DHT22;3254;47.372;8.512;2023-07-16T00:05:18;16.00;99.90
6443;DHT22;3254;47.372;8.512;2023-07-16T00:07:43;16.00;99.90
6443;DHT22;3254;47.372;8.512;2023-07-16T00:10:09;15.90;99.90
6443;DHT22;3254;47.372;8.512;2023-07-16T00:12:35;15.80;99.90
6443;DHT22;3254;47.372;8.512;2023-07-16T00:15:02;15.80;99.90
6443;DHT22;3254;47.372;8.512;2023-07-16T00:17:29;15.60;99.90
6443;DHT22;3254;47.372;8.512;2023-07-16T00:19:54;15.60;99.90
6443;DHT22;3254;47.372;8.512;2023-07-16T00:22:20;15.60;99.90
6443;DHT22;3254;47.372;8.512;2023-07-16T00:24:45;15.40;99.90
6443;DHT22;3254;47.372;8.512;2023-07-16T00:27:11;15.40;99.90
6443;DHT22;3254;47.372;8.512;2023-07-16T00:29:37;15.50;99.90
6443;DHT22;3254;47.372;8.512;2023-07-16T00:32:03;15.50;99.90
6443;DHT22;3254;47.372;8.512;2023-07-16T00:34:29;15.50;99.90
6443;DHT22;3254;47.372;8.512;2023-07-16T00:36:55;15.50;99.90
6443;DHT22;3254;47.372;8.512;2023-07-16T00:39:30;15.50;99.90
6443;DHT22;3254;47.372;8.512;2023-07-16T00:42:00;15.50;99.90
6443;DHT22;3254;47.372;8.512;2023-07-16T00:44:27;15.50;99.90
6443;DHT22;3254;47.372;8.512;2023-07-16T00:46:55;15.50;99.90
6443;DHT22;3254;47.372;8.512;2023-07-16T00:49:23;15.50;99.90
6443;DHT22;3254;47.372;8.512;2023-07-16T00:51:49;15.50;99.90
6443;DHT22;3254;47.372;8.512;2023-07-16T00:54:17;15.60;99.90
6443;DHT22;3254;47.372;8.512;2023-07-16T00:56:45;15.60;99.90
6443;DHT22;3254;47.372;8.512;2023-07-16T00:59:10;15.60;99.90
6443;DHT22;3254;47.372;8.512;2023-07-16T01:01:38;15.60;99.90
6443;DHT22;3254;47.372;8.512;2023-07-16T01:04:04;15.60;99.90
6443;DHT22;3254;47.372;8.512;2023-07-16T01:06:41;15.60;99.90
6443;DHT22;3254;47.372;8.512;2023-07-16T01:09:20;15.60;99.90
6443;DHT22;3254;47.372;8.512;2023-07-16T01:11:47;15.60;99.90
6443;DHT22;3254;47.372;8.512;2023-07-16T01:14:16;15.60;99.90
6443;DHT22;3254;47.372;8.512;2023-07-16T01:16:42;15.60;99.90
6443;DHT22;3254;47.372;8.512;2023-07-16T01:19:08;15.60;99.90
6443;DHT22;3254;47.372;8.512;2023-07-16T01:30:29;15.70;99.90
6443;DHT22;3254;47.372;8.512;2023-07-16T01:32:57;15.60;99.90
6443;DHT22;3254;47.372;8.512;2023-07-16T01:35:25;15.60;99.90
6443;DHT22;3254;47.372;8.512;2023-07-16T01:37:51;15.70;99.90
6443;DHT22;3254;47.372;8.512;2023-07-16T01:40:17;15.60;99.90
6443;DHT22;3254;47.372;8.512;2023-07-16T01:42:43;15.70;99.90
6443;DHT22;3254;47.372;8.512;2023-07-16T01:45:09;15.70;99.90
6443;DHT22;3254;47.372;8.512;2023-07-16T01:50:37;15.80;99.90
6443;DHT22;3254;47.372;8.512;2023-07-16T01:53:03;15.80;99.90
6443;DHT22;3254;47.372;8.512;2023-07-16T01:55:29;15.80;99.90
6443;DHT22;3254;47.372;8.512;2023-07-16T01:57:54;15.70;99.90
6443;DHT22;3254;47.372;8.512;2023-07-16T02:00:21;15.80;99.90
6443;DHT22;3254;47.372;8.512;2023-07-16T02:02:47;15.80;99.90
6443;DHT22;3254;47.372;8.512;2023-07-16T02:05:12;15.90;99.90
6443;DHT22;3254;47.372;8.512;2023-07-16T02:07:38;15.90;99.90
6443;DHT22;3254;47.372;8.512;2023-07-16T02:10:04;15.80;99.90
6443;DHT22;3254;47.372;8.512;2023-07-16T02:12:30;15.80;99.90
6443;DHT22;3254;47.372;8.512;2023-07-16T02:14:55;15.80;99.90
6443;DHT22;3254;47.372;8.512;2023-07-16T02:17:21;15.80;99.90
6443;DHT22;3254;47.372;8.512;2023-07-16T02:19:46;15.80;99.90
6443;DHT22;3254;47.372;8.512;2023-07-16T02:22:12;15.90;99.90
6443;DHT22;3254;47.372;8.512;2023-07-16T02:24:37;15.90;99.90
6443;DHT22;3254;47.372;8.512;2023-07-16T02:27:03;15.90;99.90
6443;DHT22;3254;47.372;8.512;2023-07-16T02:29:29;15.90;99.90
6443;DHT22;3254;47.372;8.512;2023-07-16T02:31:56;15.90;99.90
6443;DHT22;3254;47.372;8.512;2023-07-16T02:34:22;15.90;99.90
6443;DHT22;3254;47.372;8.512;2023-07-16T02:36:47;15.80;99.90
6443;DHT22;3254;47.372;8.512;2023-07-16T02:39:13;15.80;99.90
6443;DHT22;3254;47.372;8.512;2023-07-16T02:41:40;15.70;99.90
6443;DHT22;3254;47.372;8.512;2023-07-16T02:44:06;15.80;99.90
6443;DHT22;3254;47.372;8.512;2023-07-16T02:46:32;15.80;99.90
6443;DHT22;3254;47.372;8.512;2023-07-16T02:48:58;15.80;99.90
6443;DHT22;3254;47.372;8.512;2023-07-16T02:51:24;15.80;99.90
6443;DHT22;3254;47.372;8.512;2023-07-16T02:53:49;15.70;99.90
6443;DHT22;3254;47.372;8.512;2023-07-16T02:56:15;15.70;99.90
6443;DHT22;3254;47.372;8.512;2023-07-16T02:58:42;15.80;99.90
6443;DHT22;3254;47.372;8.512;2023-07-16T03:01:09;15.90;99.90
6443;DHT22;3254;47.372;8.512;2023-07-16T03:03:34;15.80;99.90
6443;DHT22;3254;47.372;8.512;2023-07-16T03:06:00;15.80;99.90
6443;DHT22;3254;47.372;8.512;2023-07-16T03:08:27;15.80;99.90
6443;DHT22;3254;47.372;8.512;2023-07-16T03:10:56;15.80;99.90
6443;DHT22;3254;47.372;8.512;2023-07-16T03:13:23;15.70;99.90
6443;DHT22;3254;47.372;8.512;2023-07-16T03:15:48;15.70;99.90
6443;DHT22;3254;47.372;8.512;2023-07-16T03:18:20;15.70;99.90
6443;DHT22;3254;47.372;8.512;2023-07-16T03:20:46;15.70;99.90
6443;DHT22;3254;47.372;8.512;2023-07-16T03:23:14;15.60;99.90
6443;DHT22;3254;47.372;8.512;2023-07-16T03:25:40;15.70;99.90
6443;DHT22;3254;47.372;8.512;2023-07-16T03:28:05;15.70;99.90
6443;DHT22;3254;47.372;8.512;2023-07-16T03:30:32;15.70;99.90
6443;DHT22;3254;47.372;8.512;2023-07-16T03:32:58;15.80;99.90
6443;DHT22;3254;47.372;8.512;2023-07-16T03:35:25;15.90;99.90
6443;DHT22;3254;47.372;8.512;2023-07-16T03:37:51;15.90;99.90
6443;DHT22;3254;47.372;8.512;2023-07-16T03:40:18;15.90;99.90
6443;DHT22;3254;47.372;8.512;2023-07-16T03:42:44;15.90;99.90
6443;DHT22;3254;47.372;8.512;2023-07-16T03:45:15;15.90;99.90
6443;DHT22;3254;47.372;8.512;2023-07-16T03:47:43;15.80;99.90
6443;DHT22;3254;47.372;8.512;2023-07-16T03:50:09;15.80;99.90
6443;DHT22;3254;47.372;8.512;2023-07-16T03:52:34;15.80;99.90
6443;DHT22;3254;47.372;8.512;2023-07-16T03:55:01;15.80;99.90
6443;DHT22;3254;47.372;8.512;2023-07-16T03:57:30;15.80;99.90
6443;DHT22;3254;47.372;8.512;2023-07-16T03:59:56;15.80;99.90
6443;DHT22;3254;47.372;8.512;2023-07-16T04:02:23;15.70;99.90
6443;DHT22;3254;47.372;8.512;2023-07-16T04:04:50;15.70;99.90
6443;DHT22;3254;47.372;8.512;2023-07-16T04:07:17;15.70;99.90
6443;DHT22;3254;47.372;8.512;2023-07-16T04:09:42;15.70;99.90
6443;DHT22;3254;47.372;8.512;2023-07-16T04:12:08;15.70;99.90
6443;DHT22;3254;47.372;8.512;2023-07-16T04:14:33;15.70;99.90
6443;DHT22;3254;47.372;8.512;2023-07-16T04:16:59;15.70;99.90
6443;DHT22;3254;47.372;8.512;2023-07-16T04:19:24;15.70;99.90
6443;DHT22;3254;47.372;8.512;2023-07-16T04:21:53;15.60;99.90
6443;DHT22;3254;47.372;8.512;2023-07-16T04:24:20;15.60;99.90
6443;DHT22;3254;47.372;8.512;2023-07-16T04:26:45;15.70;99.90
6443;DHT22;3254;47.372;8.512;2023-07-16T04:29:11;15.70;99.90
6443;DHT22;3254;47.372;8.512;2023-07-16T04:31:39;15.70;99.90
6443;DHT22;3254;47.372;8.512;2023-07-16T04:34:05;15.80;99.90
6443;DHT22;3254;47.372;8.512;2023-07-16T04:36:31;15.80;99.90
6443;DHT22;3254;47.372;8.512;2023-07-16T04:38:56;15.80;99.90
6443;DHT22;3254;47.372;8.512;2023-07-16T04:41:22;15.80;99.90
6443;DHT22;3254;47.372;8.512;2023-07-16T04:43:48;15.80;99.90
6443;DHT22;3254;47.372;8.512;2023-07-16T04:46:13;15.80;99.90
6443;DHT22;3254;47.372;8.512;2023-07-16T04:48:42;15.80;99.90
6443;DHT22;3254;47.372;8.512;2023-07-16T04:51:07;15.90;99.90
6443;DHT22;3254;47.372;8.512;2023-07-16T04:53:33;16.00;99.90
6443;DHT22;3254;47.372;8.512;2023-07-16T04:55:59;16.10;99.90
6443;DHT22;3254;47.372;8.512;2023-07-16T04:58:25;16.20;99.90
6443;DHT22;3254;47.372;8.512;2023-07-16T05:00:52;16.10;99.90
6443;DHT22;3254;47.372;8.512;2023-07-16T05:03:18;16.00;99.90
6443;DHT22;3254;47.372;8.512;2023-07-16T05:05:45;16.00;99.90
6443;DHT22;3254;47.372;8.512;2023-07-16T05:08:11;16.00;99.90
6443;DHT22;3254;47.372;8.512;2023-07-16T05:10:36;16.10;99.90
6443;DHT22;3254;47.372;8.512;2023-07-16T05:13:04;16.20;99.90
6443;DHT22;3254;47.372;8.512;2023-07-16T05:15:31;16.20;99.90
6443;DHT22;3254;47.372;8.512;2023-07-16T05:17:57;16.40;99.90
6443;DHT22;3254;47.372;8.512;2023-07-16T05:20:23;16.40;99.90
6443;DHT22;3254;47.372;8.512;2023-07-16T05:22:51;16.40;99.90
6443;DHT22;3254;47.372;8.512;2023-07-16T05:25:16;16.40;99.90
6443;DHT22;3254;47.372;8.512;2023-07-16T05:27:42;16.30;99.90
6443;DHT22;3254;47.372;8.512;2023-07-16T05:30:08;16.30;99.90
6443;DHT22;3254;47.372;8.512;2023-07-16T05:32:35;16.30;99.90
6443;DHT22;3254;47.372;8.512;2023-07-16T05:35:00;16.30;99.90
6443;DHT22;3254;47.372;8.512;2023-07-16T05:37:26;16.30;99.90
6443;DHT22;3254;47.372;8.512;2023-07-16T05:39:52;16.30;99.90
6443;DHT22;3254;47.372;8.512;2023-07-16T05:42:17;16.30;99.90
6443;DHT22;3254;47.372;8.512;2023-07-16T05:44:47;16.40;99.90
6443;DHT22;3254;47.372;8.512;2023-07-16T05:47:13;16.50;99.90
6443;DHT22;3254;47.372;8.512;2023-07-16T05:49:40;16.50;99.90
6443;DHT22;3254;47.372;8.512;2023-07-16T05:52:05;16.60;99.90
6443;DHT22;3254;47.372;8.512;2023-07-16T05:54:31;16.60;99.90
6443;DHT22;3254;47.372;8.512;2023-07-16T05:56:58;16.70;99.90
6443;DHT22;3254;47.372;8.512;2023-07-16T05:59:23;16.80;99.90
6443;DHT22;3254;47.372;8.512;2023-07-16T06:01:49;16.90;99.90
6443;DHT22;3254;47.372;8.512;2023-07-16T06:04:14;17.10;99.90
6443;DHT22;3254;47.372;8.512;2023-07-16T06:06:40;17.10;99.90
6443;DHT22;3254;47.372;8.512;2023-07-16T06:09:06;17.10;99.90
6443;DHT22;3254;47.372;8.512;2023-07-16T06:11:32;17.20;99.90
6443;DHT22;3254;47.372;8.512;2023-07-16T06:13:58;17.10;99.90
6443;DHT22;3254;47.372;8.512;2023-07-16T06:16:24;17.00;99.90
6443;DHT22;3254;47.372;8.512;2023-07-16T06:18:51;17.00;99.90
6443;DHT22;3254;47.372;8.512;2023-07-16T06:21:16;17.10;99.90
6443;DHT22;3254;47.372;8.512;2023-07-16T06:23:42;17.10;99.90
6443;DHT22;3254;47.372;8.512;2023-07-16T06:26:08;17.20;99.90
6443;DHT22;3254;47.372;8.512;2023-07-16T06:28:33;17.20;99.90
6443;DHT22;3254;47.372;8.512;2023-07-16T06:30:59;17.40;99.90
6443;DHT22;3254;47.372;8.512;2023-07-16T06:33:24;17.50;99.90
6443;DHT22;3254;47.372;8.512;2023-07-16T06:35:52;17.60;99.90
6443;DHT22;3254;47.372;8.512;2023-07-16T06:38:18;17.60;99.90
6443;DHT22;3254;47.372;8.512;2023-07-16T06:40:48;17.70;99.90
6443;DHT22;3254;47.372;8.512;2023-07-16T06:43:14;17.90;99.90
6443;DHT22;3254;47.372;8.512;2023-07-16T06:45:41;18.30;99.90
6443;DHT22;3254;47.372;8.512;2023-07-16T06:48:07;18.50;99.90
6443;DHT22;3254;47.372;8.512;2023-07-16T06:50:33;18.70;99.90
6443;DHT22;3254;47.372;8.512;2023-07-16T06:52:58;18.80;99.90
6443;DHT22;3254;47.372;8.512;2023-07-16T06:55:25;18.90;99.90
6443;DHT22;3254;47.372;8.512;2023-07-16T06:57:51;18.70;99.90
6443;DHT22;3254;47.372;8.512;2023-07-16T07:00:17;18.80;99.90
6443;DHT22;3254;47.372;8.512;2023-07-16T07:02:43;18.80;99.90
6443;DHT22;3254;47.372;8.512;2023-07-16T07:05:09;18.90;99.90
6443;DHT22;3254;47.372;8.512;2023-07-16T07:07:34;18.90;99.90
6443;DHT22;3254;47.372;8.512;2023-07-16T07:10:00;18.80;99.90
6443;DHT22;3254;47.372;8.512;2023-07-16T07:12:27;18.60;99.90
6443;DHT22;3254;47.372;8.512;2023-07-16T07:14:52;18.40;99.90
6443;DHT22;3254;47.372;8.512;2023-07-16T07:17:18;18.50;99.90
6443;DHT22;3254;47.372;8.512;2023-07-16T07:19:44;18.80;99.90
6443;DHT22;3254;47.372;8.512;2023-07-16T07:22:10;19.00;99.90
6443;DHT22;3254;47.372;8.512;2023-07-16T07:24:35;19.20;99.90
6443;DHT22;3254;47.372;8.512;2023-07-16T07:27:02;19.20;91.10
6443;DHT22;3254;47.372;8.512;2023-07-16T07:29:28;19.20;93.70
6443;DHT22;3254;47.372;8.512;2023-07-16T07:31:53;19.40;88.30
6443;DHT22;3254;47.372;8.512;2023-07-16T07:34:20;19.40;89.50
6443;DHT22;3254;47.372;8.512;2023-07-16T07:36:47;19.60;81.40
6443;DHT22;3254;47.372;8.512;2023-07-16T07:39:12;19.40;81.50
6443;DHT22;3254;47.372;8.512;2023-07-16T07:41:42;19.30;77.70
6443;DHT22;3254;47.372;8.512;2023-07-16T07:44:07;19.20;83.40
6443;DHT22;3254;47.372;8.512;2023-07-16T07:46:33;19.30;87.00
6443;DHT22;3254;47.372;8.512;2023-07-16T07:48:58;19.40;60.70
6443;DHT22;3254;47.372;8.512;2023-07-16T07:51:24;19.50;74.40
6443;DHT22;3254;47.372;8.512;2023-07-16T07:53:50;19.90;73.50
6443;DHT22;3254;47.372;8.512;2023-07-16T07:56:15;20.20;76.90
6443;DHT22;3254;47.372;8.512;2023-07-16T07:58:41;20.90;43.90
6443;DHT22;3254;47.372;8.512;2023-07-16T08:01:08;21.30;19.90
6443;DHT22;3254;47.372;8.512;2023-07-16T08:03:34;21.70;4.30
6443;DHT22;3254;47.372;8.512;2023-07-16T08:06:00;21.90;1.00
6443;DHT22;3254;47.372;8.512;2023-07-16T08:08:26;22.00;1.00
6443;DHT22;3254;47.372;8.512;2023-07-16T08:10:53;21.70;6.40
6443;DHT22;3254;47.372;8.512;2023-07-16T08:13:21;21.50;2.30
6443;DHT22;3254;47.372;8.512;2023-07-16T08:15:47;21.20;1.00
6443;DHT22;3254;47.372;8.512;2023-07-16T08:18:15;21.10;3.70
6443;DHT22;3254;47.372;8.512;2023-07-16T08:20:41;21.10;1.00
6443;DHT22;3254;47.372;8.512;2023-07-16T08:23:07;21.00;1.00
6443;DHT22;3254;47.372;8.512;2023-07-16T08:25:33;21.00;1.00
6443;DHT22;3254;47.372;8.512;2023-07-16T08:28:01;20.60;1.00
6443;DHT22;3254;47.372;8.512;2023-07-16T08:30:27;20.30;1.00
6443;DHT22;3254;47.372;8.512;2023-07-16T08:32:52;20.20;1.00
6443;DHT22;3254;47.372;8.512;2023-07-16T08:35:18;20.10;1.00
6443;DHT22;3254;47.372;8.512;2023-07-16T08:37:45;20.00;1.00
6443;DHT22;3254;47.372;8.512;2023-07-16T08:40:12;20.00;1.00
6443;DHT22;3254;47.372;8.512;2023-07-16T08:42:39;20.20;3.70
6443;DHT22;3254;47.372;8.512;2023-07-16T08:45:10;20.50;1.00
6443;DHT22;3254;47.372;8.512;2023-07-16T08:47:36;20.70;1.00
6443;DHT22;3254;47.372;8.512;2023-07-16T08:50:02;21.00;1.00
6443;DHT22;3254;47.372;8.512;2023-07-16T08:52:28;21.70;1.00
6443;DHT22;3254;47.372;8.512;2023-07-16T08:54:55;22.30;1.00
6443;DHT22;3254;47.372;8.512;2023-07-16T08:57:21;22.90;1.00
6443;DHT22;3254;47.372;8.512;2023-07-16T08:59:51;24.20;1.00
6443;DHT22;3254;47.372;8.512;2023-07-16T09:02:20;25.10;1.00
6443;DHT22;3254;47.372;8.512;2023-07-16T09:04:49;25.50;1.00
6443;DHT22;3254;47.372;8.512;2023-07-16T09:07:16;25.90;1.00
6443;DHT22;3254;47.372;8.512;2023-07-16T09:09:42;25.90;1.00
6443;DHT22;3254;47.372;8.512;2023-07-16T09:12:13;25.70;1.00
6443;DHT22;3254;47.372;8.512;2023-07-16T09:14:41;26.10;1.00
6443;DHT22;3254;47.372;8.512;2023-07-16T09:17:08;26.10;1.00
6443;DHT22;3254;47.372;8.512;2023-07-16T09:19:33;26.10;1.00
6443;DHT22;3254;47.372;8.512;2023-07-16T09:21:59;25.90;1.00
6443;DHT22;3254;47.372;8.512;2023-07-16T09:24:26;25.60;1.00
6443;DHT22;3254;47.372;8.512;2023-07-16T09:26:53;25.20;1.00
6443;DHT22;3254;47.372;8.512;2023-07-16T09:29:21;24.80;1.00
6443;DHT22;3254;47.372;8.512;2023-07-16T09:32:00;25.30;1.00
6443;DHT22;3254;47.372;8.512;2023-07-16T09:34:28;25.30;1.00
6443;DHT22;3254;47.372;8.512;2023-07-16T09:36:55;25.20;1.00
6443;DHT22;3254;47.372;8.512;2023-07-16T09:39:22;26.00;1.00
6443;DHT22;3254;47.372;8.512;2023-07-16T09:41:49;26.70;1.00
6443;DHT22;3254;47.372;8.512;2023-07-16T09:44:16;27.90;1.00
6443;DHT22;3254;47.372;8.512;2023-07-16T09:46:42;27.50;1.00
6443;DHT22;3254;47.372;8.512;2023-07-16T09:49:10;27.20;1.00
6443;DHT22;3254;47.372;8.512;2023-07-16T09:51:38;27.00;1.00
6443;DHT22;3254;47.372;8.512;2023-07-16T09:54:04;26.90;1.00
6443;DHT22;3254;47.372;8.512;2023-07-16T09:56:37;26.30;1.00
6443;DHT22;3254;47.372;8.512;2023-07-16T09:59:16;25.80;1.00
6443;DHT22;3254;47.372;8.512;2023-07-16T10:01:42;25.60;1.00
6443;DHT22;3254;47.372;8.512;2023-07-16T10:04:19;25.10;1.00
6443;DHT22;3254;47.372;8.512;2023-07-16T10:09:38;24.30;1.00
6443;DHT22;3254;47.372;8.512;2023-07-16T10:12:14;24.40;1.00
6443;DHT22;3254;47.372;8.512;2023-07-16T10:14:48;24.30;1.00
6443;DHT22;3254;47.372;8.512;2023-07-16T10:17:21;24.50;1.00
6443;DHT22;3254;47.372;8.512;2023-07-16T10:19:48;24.50;1.00
6443;DHT22;3254;47.372;8.512;2023-07-16T10:22:14;25.00;1.00
6443;DHT22;3254;47.372;8.512;2023-07-16T10:24:40;25.20;1.00
6443;DHT22;3254;47.372;8.512;2023-07-16T10:27:07;25.20;1.00
6443;DHT22;3254;47.372;8.512;2023-07-16T10:29:33;25.00;1.00
6443;DHT22;3254;47.372;8.512;2023-07-16T10:31:58;24.70;1.00
6443;DHT22;3254;47.372;8.512;2023-07-16T10:34:24;25.60;1.00
6443;DHT22;3254;47.372;8.512;2023-07-16T10:36:52;26.90;1.00
6443;DHT22;3254;47.372;8.512;2023-07-16T10:39:17;28.30;1.00
6443;DHT22;3254;47.372;8.512;2023-07-16T10:41:43;29.10;1.00
6443;DHT22;3254;47.372;8.512;2023-07-16T10:44:09;29.30;1.00
6443;DHT22;3254;47.372;8.512;2023-07-16T10:46:43;30.00;1.00
6443;DHT22;3254;47.372;8.512;2023-07-16T10:49:09;29.70;1.00
6443;DHT22;3254;47.372;8.512;2023-07-16T10:51:34;30.30;1.00
6443;DHT22;3254;47.372;8.512;2023-07-16T10:54:04;31.20;1.00
6443;DHT22;3254;47.372;8.512;2023-07-16T10:56:35;31.70;1.00
6443;DHT22;3254;47.372;8.512;2023-07-16T10:59:01;31.60;1.00
6443;DHT22;3254;47.372;8.512;2023-07-16T11:01:29;31.50;1.00
6443;DHT22;3254;47.372;8.512;2023-07-16T11:04:00;31.10;1.00
6443;DHT22;3254;47.372;8.512;2023-07-16T11:06:26;30.60;1.00
6443;DHT22;3254;47.372;8.512;2023-07-16T11:08:52;31.00;1.00
6443;DHT22;3254;47.372;8.512;2023-07-16T11:11:29;31.40;1.00
6443;DHT22;3254;47.372;8.512;2023-07-16T11:13:55;31.90;1.00
6443;DHT22;3254;47.372;8.512;2023-07-16T11:16:21;31.90;1.00
6443;DHT22;3254;47.372;8.512;2023-07-16T11:18:47;32.30;1.00
6443;DHT22;3254;47.372;8.512;2023-07-16T11:21:13;32.70;1.00
6443;DHT22;3254;47.372;8.512;2023-07-16T11:23:41;33.70;1.00
6443;DHT22;3254;47.372;8.512;2023-07-16T11:26:08;34.80;1.00
6443;DHT22;3254;47.372;8.512;2023-07-16T11:28:41;35.30;1.00
6443;DHT22;3254;47.372;8.512;2023-07-16T11:31:15;36.20;1.00
6443;DHT22;3254;47.372;8.512;2023-07-16T11:33:44;35.90;1.00
6443;DHT22;3254;47.372;8.512;2023-07-16T11:36:10;35.90;1.00
6443;DHT22;3254;47.372;8.512;2023-07-16T11:38:37;36.40;1.00
6443;DHT22;3254;47.372;8.512;2023-07-16T11:41:02;35.90;1.00
6443;DHT22;3254;47.372;8.512;2023-07-16T11:43:34;35.30;1.00
6443;DHT22;3254;47.372;8.512;2023-07-16T11:46:00;34.90;1.00
6443;DHT22;3254;47.372;8.512;2023-07-16T11:48:25;34.20;1.00
6443;DHT22;3254;47.372;8.512;2023-07-16T11:50:51;33.70;1.00
6443;DHT22;3254;47.372;8.512;2023-07-16T11:53:19;33.40;1.00
6443;DHT22;3254;47.372;8.512;2023-07-16T11:55:45;33.00;1.00
6443;DHT22;3254;47.372;8.512;2023-07-16T11:58:10;33.10;1.00
6443;DHT22;3254;47.372;8.512;2023-07-16T12:00:36;32.90;1.00
6443;DHT22;3254;47.372;8.512;2023-07-16T12:03:01;32.20;1.00
6443;DHT22;3254;47.372;8.512;2023-07-16T12:05:27;31.40;1.00
6443;DHT22;3254;47.372;8.512;2023-07-16T12:07:53;31.00;1.00
6443;DHT22;3254;47.372;8.512;2023-07-16T12:10:21;30.70;1.00
6443;DHT22;3254;47.372;8.512;2023-07-16T12:12:49;31.10;1.00
6443;DHT22;3254;47.372;8.512;2023-07-16T12:15:14;31.60;1.00
6443;DHT22;3254;47.372;8.512;2023-07-16T12:17:40;31.50;1.00
6443;DHT22;3254;47.372;8.512;2023-07-16T12:20:06;31.30;1.00
6443;DHT22;3254;47.372;8.512;2023-07-16T12:22:32;31.20;1.00
6443;DHT22;3254;47.372;8.512;2023-07-16T12:24:58;30.70;1.00
6443;DHT22;3254;47.372;8.512;2023-07-16T12:27:24;30.70;1.00
6443;DHT22;3254;47.372;8.512;2023-07-16T12:29:49;29.90;1.00
6443;DHT22;3254;47.372;8.512;2023-07-16T12:32:15;29.10;1.00
6443;DHT22;3254;47.372;8.512;2023-07-16T12:34:40;28.90;1.00
6443;DHT22;3254;47.372;8.512;2023-07-16T12:37:06;29.10;1.00
6443;DHT22;3254;47.372;8.512;2023-07-16T12:39:34;29.50;1.00
6443;DHT22;3254;47.372;8.512;2023-07-16T12:42:00;30.50;1.00
6443;DHT22;3254;47.372;8.512;2023-07-16T12:44:26;30.90;1.00
6443;DHT22;3254;47.372;8.512;2023-07-16T12:46:51;30.40;1.00
6443;DHT22;3254;47.372;8.512;2023-07-16T12:49:17;30.80;1.00
6443;DHT22;3254;47.372;8.512;2023-07-16T12:51:43;31.30;1.00
6443;DHT22;3254;47.372;8.512;2023-07-16T12:54:09;31.30;1.00
6443;DHT22;3254;47.372;8.512;2023-07-16T12:56:34;32.60;1.00
6443;DHT22;3254;47.372;8.512;2023-07-16T12:59:00;34.10;1.00
6443;DHT22;3254;47.372;8.512;2023-07-16T13:01:25;35.10;1.00
6443;DHT22;3254;47.372;8.512;2023-07-16T13:03:51;34.90;1.00
6443;DHT22;3254;47.372;8.512;2023-07-16T13:06:16;35.70;1.00
6443;DHT22;3254;47.372;8.512;2023-07-16T13:08:42;36.30;1.00
6443;DHT22;3254;47.372;8.512;2023-07-16T13:11:08;36.90;1.00
6443;DHT22;3254;47.372;8.512;2023-07-16T13:13:33;36.50;1.00
6443;DHT22;3254;47.372;8.512;2023-07-16T13:16:00;37.70;1.00
6443;DHT22;3254;47.372;8.512;2023-07-16T13:18:26;38.60;1.00
6443;DHT22;3254;47.372;8.512;2023-07-16T13:20:51;38.30;1.00
6443;DHT22;3254;47.372;8.512;2023-07-16T13:23:17;39.40;1.00
6443;DHT22;3254;47.372;8.512;2023-07-16T13:25:43;39.30;1.00
6443;DHT22;3254;47.372;8.512;2023-07-16T13:28:08;38.50;1.00
6443;DHT22;3254;47.372;8.512;2023-07-16T13:30:34;38.60;1.00
6443;DHT22;3254;47.372;8.512;2023-07-16T13:33:01;39.90;1.00
6443;DHT22;3254;47.372;8.512;2023-07-16T13:35:27;40.40;1.00
6443;DHT22;3254;47.372;8.512;2023-07-16T13:37:52;40.20;1.00
6443;DHT22;3254;47.372;8.512;2023-07-16T13:40:18;39.10;1.00
6443;DHT22;3254;47.372;8.512;2023-07-16T13:42:46;39.30;1.00
6443;DHT22;3254;47.372;8.512;2023-07-16T13:45:13;39.90;1.00
6443;DHT22;3254;47.372;8.512;2023-07-16T13:47:39;40.30;1.00
6443;DHT22;3254;47.372;8.512;2023-07-16T13:50:05;39.20;1.00
6443;DHT22;3254;47.372;8.512;2023-07-16T13:52:34;39.10;1.00
6443;DHT22;3254;47.372;8.512;2023-07-16T13:55:01;39.10;1.00
6443;DHT22;3254;47.372;8.512;2023-07-16T13:57:29;39.40;1.00
6443;DHT22;3254;47.372;8.512;2023-07-16T13:59:55;39.50;1.00
6443;DHT22;3254;47.372;8.512;2023-07-16T14:02:21;38.40;1.00
6443;DHT22;3254;47.372;8.512;2023-07-16T14:04:47;37.30;1.00
6443;DHT22;3254;47.372;8.512;2023-07-16T14:07:13;36.00;1.00
6443;DHT22;3254;47.372;8.512;2023-07-16T14:09:38;36.00;1.00
6443;DHT22;3254;47.372;8.512;2023-07-16T14:12:04;36.30;1.00
6443;DHT22;3254;47.372;8.512;2023-07-16T14:14:30;36.20;1.00
6443;DHT22;3254;47.372;8.512;2023-07-16T14:16:57;36.40;1.00
6443;DHT22;3254;47.372;8.512;2023-07-16T14:19:22;36.90;1.00
6443;DHT22;3254;47.372;8.512;2023-07-16T14:21:48;37.70;1.00
6443;DHT22;3254;47.372;8.512;2023-07-16T14:24:13;38.40;1.00
6443;DHT22;3254;47.372;8.512;2023-07-16T14:26:40;39.00;1.00
6443;DHT22;3254;47.372;8.512;2023-07-16T14:29:06;39.80;1.00
6443;DHT22;3254;47.372;8.512;2023-07-16T14:31:33;39.50;1.00
6443;DHT22;3254;47.372;8.512;2023-07-16T14:33:59;39.10;1.00
6443;DHT22;3254;47.372;8.512;2023-07-16T14:36:26;39.10;1.00
6443;DHT22;3254;47.372;8.512;2023-07-16T14:38:52;38.80;1.00
6443;DHT22;3254;47.372;8.512;2023-07-16T14:41:18;38.80;1.00
6443;DHT22;3254;47.372;8.512;2023-07-16T14:43:47;39.30;1.00
6443;DHT22;3254;47.372;8.512;2023-07-16T14:46:15;38.50;1.00
6443;DHT22;3254;47.372;8.512;2023-07-16T14:48:43;38.70;1.00
6443;DHT22;3254;47.372;8.512;2023-07-16T14:51:12;38.80;1.00
6443;DHT22;3254;47.372;8.512;2023-07-16T14:53:39;39.00;1.00
6443;DHT22;3254;47.372;8.512;2023-07-16T14:56:08;39.10;1.00
6443;DHT22;3254;47.372;8.512;2023-07-16T14:58:33;39.20;1.00
6443;DHT22;3254;47.372;8.512;2023-07-16T15:01:01;37.90;1.00
6443;DHT22;3254;47.372;8.512;2023-07-16T15:03:29;38.20;1.00
6443;DHT22;3254;47.372;8.512;2023-07-16T15:05:58;39.00;1.00
6443;DHT22;3254;47.372;8.512;2023-07-16T15:08:25;39.30;1.00
6443;DHT22;3254;47.372;8.512;2023-07-16T15:10:53;38.40;1.00
6443;DHT22;3254;47.372;8.512;2023-07-16T15:13:21;38.70;1.00
6443;DHT22;3254;47.372;8.512;2023-07-16T15:15:48;38.70;1.00
6443;DHT22;3254;47.372;8.512;2023-07-16T15:18:14;38.50;1.00
6443;DHT22;3254;47.372;8.512;2023-07-16T15:20:41;38.20;1.00
6443;DHT22;3254;47.372;8.512;2023-07-16T15:23:11;38.20;1.00
6443;DHT22;3254;47.372;8.512;2023-07-16T15:25:36;37.40;1.00
6443;DHT22;3254;47.372;8.512;2023-07-16T15:28:02;37.50;1.00
6443;DHT22;3254;47.372;8.512;2023-07-16T15:30:31;37.10;1.00
6443;DHT22;3254;47.372;8.512;2023-07-16T15:32:57;37.30;1.00
6443;DHT22;3254;47.372;8.512;2023-07-16T15:35:23;37.40;1.00
6443;DHT22;3254;47.372;8.512;2023-07-16T15:37:49;37.40;1.00
6443;DHT22;3254;47.372;8.512;2023-07-16T15:40:15;37.20;1.00
6443;DHT22;3254;47.372;8.512;2023-07-16T15:42:41;37.60;1.00
6443;DHT22;3254;47.372;8.512;2023-07-16T15:45:11;38.20;1.00
6443;DHT22;3254;47.372;8.512;2023-07-16T15:47:42;38.50;1.00
6443;DHT22;3254;47.372;8.512;2023-07-16T15:50:09;38.60;1.00
6443;DHT22;3254;47.372;8.512;2023-07-16T15:52:36;38.60;1.00
6443;DHT22;3254;47.372;8.512;2023-07-16T15:55:01;38.90;1.00
6443;DHT22;3254;47.372;8.512;2023-07-16T15:57:29;38.80;1.00
6443;DHT22;3254;47.372;8.512;2023-07-16T15:59:57;38.20;1.00
6443;DHT22;3254;47.372;8.512;2023-07-16T16:02:23;37.80;1.00
6443;DHT22;3254;47.372;8.512;2023-07-16T16:04:50;37.50;1.00
6443;DHT22;3254;47.372;8.512;2023-07-16T16:07:15;37.50;1.00
6443;DHT22;3254;47.372;8.512;2023-07-16T16:09:41;37.60;1.00
6443;DHT22;3254;47.372;8.512;2023-07-16T16:12:07;37.40;1.00
6443;DHT22;3254;47.372;8.512;2023-07-16T16:14:34;37.60;1.00
6443;DHT22;3254;47.372;8.512;2023-07-16T16:17:00;37.40;1.00
6443;DHT22;3254;47.372;8.512;2023-07-16T16:19:27;36.90;1.00